createdAt,value
2019-03-20T00:00:16.562Z,7.20
2019-03-20T00:02:46.113Z,7.30
2019-03-20T00:05:15.563Z,7.30
2019-03-20T00:07:46.776Z,7.30
2019-03-20T00:10:16.824Z,7.30
2019-03-20T00:12:46.248Z,7.30
2019-03-20T00:15:15.693Z,7.30
2019-03-20T00:17:45.104Z,7.30
2019-03-20T00:20:14.705Z,7.30
2019-03-20T00:22:44.175Z,7.30
2019-03-20T00:25:13.648Z,7.20
2019-03-20T00:27:43.042Z,7.20
2019-03-20T00:30:13.076Z,7.20
2019-03-20T00:32:42.532Z,7.20
2019-03-20T00:35:12.052Z,7.10
2019-03-20T00:37:41.547Z,7.20
2019-03-20T00:40:11.816Z,7.10
2019-03-20T00:42:41.363Z,7.20
2019-03-20T00:45:11.876Z,7.20
2019-03-20T00:47:41.289Z,7.20
2019-03-20T00:50:13.220Z,7.20
2019-03-20T00:52:42.698Z,7.20
2019-03-20T00:55:12.331Z,7.20
2019-03-20T00:57:41.920Z,7.20
2019-03-20T01:00:14.143Z,7.20
2019-03-20T01:02:43.573Z,7.30
2019-03-20T01:05:13.198Z,7.30
2019-03-20T01:07:44.453Z,7.30
2019-03-20T01:10:16.952Z,7.30
2019-03-20T01:12:46.556Z,7.30
2019-03-20T01:15:17.732Z,7.20
2019-03-20T01:17:47.310Z,7.30
2019-03-20T01:20:17.733Z,7.30
2019-03-20T01:22:47.817Z,7.30
2019-03-20T01:25:18.409Z,7.30
2019-03-20T01:27:47.788Z,7.20
2019-03-20T01:30:37.101Z,7.20
2019-03-20T01:33:08.075Z,7.20
2019-03-20T01:35:37.622Z,7.20
2019-03-20T01:38:07.261Z,7.20
2019-03-20T01:40:36.721Z,7.20
2019-03-20T01:43:06.380Z,7.20
2019-03-20T01:45:35.785Z,7.20
2019-03-20T01:48:05.481Z,7.10
2019-03-20T01:50:34.861Z,7.20
2019-03-20T01:53:04.259Z,7.10
2019-03-20T01:55:34.844Z,7.10
2019-03-20T01:58:04.452Z,7.10
2019-03-20T02:00:34.105Z,7.20
2019-03-20T02:03:03.612Z,7.20
2019-03-20T02:05:36.347Z,7.20
2019-03-20T02:08:04.228Z,7.20
2019-03-20T02:10:33.636Z,7.30
2019-03-20T02:13:03.039Z,7.30
2019-03-20T02:15:38.902Z,7.30
2019-03-20T02:18:03.553Z,7.30
2019-03-20T02:20:32.964Z,7.30
2019-03-20T02:23:02.356Z,7.40
2019-03-20T02:25:32.505Z,7.40
2019-03-20T02:28:02.036Z,7.30
2019-03-20T02:30:31.783Z,7.40
2019-03-20T02:33:01.166Z,7.40
2019-03-20T02:35:30.565Z,7.30
2019-03-20T02:38:00.040Z,7.30
2019-03-20T02:40:30.568Z,7.30
2019-03-20T02:42:59.960Z,7.30
2019-03-20T02:45:29.416Z,7.30
2019-03-20T02:47:58.899Z,7.30
2019-03-20T02:50:28.310Z,7.30
2019-03-20T02:52:57.796Z,7.20
2019-03-20T02:55:27.283Z,7.20
2019-03-20T02:57:56.731Z,7.20
2019-03-20T03:00:26.149Z,7.30
2019-03-20T03:02:55.625Z,7.20
2019-03-20T03:05:25.083Z,7.30
2019-03-20T03:07:54.573Z,7.30
2019-03-20T03:10:24.029Z,7.30
2019-03-20T03:12:53.413Z,7.30
2019-03-20T03:15:22.917Z,7.30
2019-03-20T03:17:52.375Z,7.20
2019-03-20T03:20:21.756Z,7.20
2019-03-20T03:22:51.154Z,7.20
2019-03-20T03:25:20.605Z,7.20
2019-03-20T03:27:50.096Z,7.20
2019-03-20T03:30:19.491Z,7.20
2019-03-20T03:32:48.966Z,7.20
2019-03-20T03:35:20.453Z,7.20
2019-03-20T03:37:50.380Z,7.20
2019-03-20T03:40:19.922Z,7.20
2019-03-20T03:42:51.193Z,7.20
2019-03-20T03:45:20.648Z,7.20
2019-03-20T03:47:50.135Z,7.20
2019-03-20T03:50:19.590Z,7.20
2019-03-20T03:52:49.073Z,7.20
2019-03-20T03:55:18.524Z,7.10
2019-03-20T03:57:48.062Z,7.10
2019-03-20T04:00:17.592Z,7.00
2019-03-20T04:02:47.166Z,7.00
2019-03-20T04:05:16.849Z,6.90
2019-03-20T04:07:46.276Z,7.00
2019-03-20T04:10:15.685Z,7.00
2019-03-20T04:12:45.140Z,6.90
2019-03-20T04:15:15.303Z,6.90
2019-03-20T04:17:45.737Z,6.90
2019-03-20T04:20:15.422Z,6.90
2019-03-20T04:22:44.903Z,6.90
2019-03-20T04:25:14.715Z,6.90
2019-03-20T04:27:44.343Z,6.90
2019-03-20T04:30:13.924Z,6.80
2019-03-20T04:32:43.415Z,6.90
2019-03-20T04:35:14.337Z,6.80
2019-03-20T04:37:43.839Z,6.70
2019-03-20T04:40:13.328Z,6.80
2019-03-20T04:42:42.736Z,6.70
2019-03-20T04:45:12.842Z,6.70
2019-03-20T04:47:42.399Z,6.70
2019-03-20T04:50:11.844Z,6.70
2019-03-20T04:52:41.276Z,6.70
2019-03-20T04:55:11.061Z,6.60
2019-03-20T04:57:40.449Z,6.60
2019-03-20T05:00:12.260Z,6.60
2019-03-20T05:02:41.637Z,6.60
2019-03-20T05:05:11.244Z,6.60
2019-03-20T05:07:40.740Z,6.60
2019-03-20T05:10:11.796Z,6.50
2019-03-20T05:12:41.234Z,6.50
2019-03-20T05:15:10.945Z,6.50
2019-03-20T05:17:40.397Z,6.40
2019-03-20T05:20:11.236Z,6.40
2019-03-20T05:22:40.652Z,6.40
2019-03-20T05:25:10.185Z,6.40
2019-03-20T05:27:39.640Z,6.40
2019-03-20T05:30:09.781Z,6.40
2019-03-20T05:32:39.163Z,6.40
2019-03-20T05:35:08.873Z,6.40
2019-03-20T05:37:38.335Z,6.30
2019-03-20T05:40:08.617Z,6.30
2019-03-20T05:42:38.030Z,6.30
2019-03-20T05:45:08.956Z,6.20
2019-03-20T05:47:40.143Z,6.20
2019-03-20T05:50:10.837Z,6.30
2019-03-20T05:52:40.331Z,6.30
2019-03-20T05:55:10.016Z,6.30
2019-03-20T05:57:40.860Z,6.30
2019-03-20T06:00:11.735Z,6.30
2019-03-20T06:02:41.113Z,6.40
2019-03-20T06:05:10.712Z,6.40
2019-03-20T06:07:40.191Z,6.40
2019-03-20T06:10:11.363Z,6.40
2019-03-20T06:12:40.769Z,6.40
2019-03-20T06:15:10.352Z,6.40
2019-03-20T06:17:39.766Z,6.50
2019-03-20T06:20:09.356Z,6.50
2019-03-20T06:22:38.759Z,6.60
2019-03-20T06:25:08.695Z,6.60
2019-03-20T06:27:38.156Z,6.70
2019-03-20T06:30:09.244Z,6.70
2019-03-20T06:32:59.767Z,6.80
2019-03-20T06:35:28.783Z,6.90
2019-03-20T06:37:59.766Z,7.00
2019-03-20T06:40:29.234Z,7.00
2019-03-20T06:42:58.683Z,7.10
2019-03-20T06:45:28.081Z,7.10
2019-03-20T06:47:58.412Z,7.10
2019-03-20T06:50:27.829Z,7.20
2019-03-20T06:52:57.220Z,7.20
2019-03-20T06:55:26.691Z,7.30
2019-03-20T06:57:56.164Z,7.30
2019-03-20T07:00:52.009Z,7.40
2019-03-20T07:03:28.512Z,7.40
2019-03-20T07:06:28.136Z,7.50
2019-03-20T07:09:21.468Z,7.60
2019-03-20T07:11:50.872Z,7.60
2019-03-20T07:14:20.256Z,7.70
2019-03-20T07:16:49.683Z,7.80
2019-03-20T07:19:19.067Z,7.80
2019-03-20T07:21:49.987Z,7.90
2019-03-20T07:24:19.399Z,8.10
2019-03-20T07:26:48.781Z,8.10
2019-03-20T07:29:18.167Z,8.30
2019-03-20T07:31:47.661Z,8.30
2019-03-20T07:34:17.048Z,8.40
2019-03-20T07:36:46.463Z,8.50
2019-03-20T07:39:15.876Z,8.60
2019-03-20T07:41:45.342Z,8.70
2019-03-20T07:44:14.869Z,8.70
2019-03-20T07:46:44.362Z,8.90
2019-03-20T07:49:13.839Z,9.00
2019-03-20T07:51:45.103Z,9.10
2019-03-20T07:54:14.532Z,9.20
2019-03-20T07:56:43.984Z,9.30
2019-03-20T07:59:13.368Z,9.40
2019-03-20T08:01:42.784Z,9.50
2019-03-20T08:04:12.175Z,9.60
2019-03-20T08:06:41.566Z,9.70
2019-03-20T08:09:10.971Z,9.80
2019-03-20T08:11:40.361Z,9.90
2019-03-20T08:14:09.773Z,10.00
2019-03-20T08:16:39.195Z,10.10
2019-03-20T08:19:08.665Z,10.20
2019-03-20T08:21:38.107Z,10.30
2019-03-20T08:24:08.669Z,10.50
2019-03-20T08:26:38.073Z,10.60
2019-03-20T08:29:07.472Z,10.70
2019-03-20T08:31:37.011Z,10.80
2019-03-20T08:34:06.552Z,11.00
2019-03-20T08:36:35.944Z,11.00
2019-03-20T08:39:07.165Z,11.20
2019-03-20T08:41:36.669Z,11.40
2019-03-20T08:44:06.097Z,11.50
2019-03-20T08:46:35.518Z,11.70
2019-03-20T08:49:05.178Z,11.80
2019-03-20T08:51:34.592Z,12.00
2019-03-20T08:54:04.186Z,12.20
2019-03-20T08:56:33.592Z,12.30
2019-03-20T08:59:03.045Z,12.40
2019-03-20T09:01:32.528Z,12.50
2019-03-20T09:04:01.919Z,12.60
2019-03-20T09:06:32.412Z,12.70
2019-03-20T09:09:02.236Z,12.90
2019-03-20T09:11:31.628Z,13.00
2019-03-20T09:14:01.016Z,13.10
2019-03-20T09:16:30.731Z,13.30
2019-03-20T09:19:00.130Z,13.40
2019-03-20T09:21:29.950Z,13.50
2019-03-20T09:23:59.516Z,13.60
2019-03-20T09:26:28.946Z,13.80
2019-03-20T09:28:58.388Z,13.90
2019-03-20T09:31:27.775Z,13.80
2019-03-20T09:33:57.204Z,13.90
2019-03-20T09:36:26.711Z,14.00
2019-03-20T09:38:56.172Z,14.00
2019-03-20T09:41:25.555Z,14.10
2019-03-20T09:43:54.960Z,14.30
2019-03-20T09:46:24.368Z,14.60
2019-03-20T09:48:53.772Z,14.90
2019-03-20T09:51:23.597Z,15.30
2019-03-20T09:53:53.014Z,15.60
2019-03-20T09:56:22.472Z,15.80
2019-03-20T09:58:51.934Z,15.90
2019-03-20T10:01:21.375Z,16.20
2019-03-20T10:03:50.828Z,16.50
2019-03-20T10:06:20.223Z,16.60
2019-03-20T10:08:54.149Z,16.50
2019-03-20T10:11:20.805Z,16.40
2019-03-20T10:13:51.681Z,16.50
2019-03-20T10:16:21.056Z,16.90
2019-03-20T10:18:50.436Z,17.30
2019-03-20T10:21:19.908Z,17.80
2019-03-20T10:23:49.312Z,18.10
2019-03-20T10:26:18.732Z,18.00
2019-03-20T10:28:48.191Z,18.00
2019-03-20T10:31:17.655Z,18.10
2019-03-20T10:33:47.129Z,18.30
2019-03-20T10:36:16.508Z,18.60
2019-03-20T10:38:48.448Z,18.70
2019-03-20T10:41:17.020Z,18.60
2019-03-20T10:43:46.403Z,18.20
2019-03-20T10:46:15.974Z,17.80
2019-03-20T10:48:45.384Z,17.50
2019-03-20T10:51:14.934Z,17.20
2019-03-20T10:53:44.337Z,17.10
2019-03-20T10:56:13.857Z,17.40
2019-03-20T10:58:43.320Z,17.80
2019-03-20T11:01:13.859Z,17.90
2019-03-20T11:03:43.920Z,18.20
2019-03-20T11:06:13.919Z,18.60
2019-03-20T11:08:43.323Z,18.40
2019-03-20T11:11:12.739Z,18.00
2019-03-20T11:13:42.209Z,17.50
2019-03-20T11:16:11.608Z,17.30
2019-03-20T11:18:41.032Z,17.30
2019-03-20T11:21:10.490Z,17.40
2019-03-20T11:23:39.973Z,17.60
2019-03-20T11:26:09.409Z,18.10
2019-03-20T11:28:38.793Z,18.50
2019-03-20T11:31:08.250Z,19.20
2019-03-20T11:33:37.682Z,19.90
2019-03-20T11:36:07.243Z,20.70
2019-03-20T11:38:36.656Z,21.30
2019-03-20T11:41:06.149Z,21.90
2019-03-20T11:43:36.784Z,22.50
2019-03-20T11:46:06.164Z,22.90
2019-03-20T11:48:35.545Z,23.10
2019-03-20T11:51:04.946Z,23.50
2019-03-20T11:53:34.516Z,24.10
2019-03-20T11:56:03.941Z,24.60
2019-03-20T11:58:33.497Z,24.80
2019-03-20T12:01:02.952Z,25.10
2019-03-20T12:03:32.367Z,25.20
2019-03-20T12:06:01.845Z,25.40
2019-03-20T12:08:31.292Z,25.70
2019-03-20T12:11:00.800Z,26.10
2019-03-20T12:13:30.267Z,26.60
2019-03-20T12:15:59.782Z,27.00
2019-03-20T12:18:29.159Z,27.20
2019-03-20T12:20:58.536Z,27.20
2019-03-20T12:23:27.929Z,26.50
2019-03-20T12:25:57.312Z,26.00
2019-03-20T12:28:26.788Z,25.40
2019-03-20T12:30:56.240Z,25.10
2019-03-20T12:33:25.620Z,25.30
2019-03-20T12:35:55.104Z,25.80
2019-03-20T12:38:24.483Z,26.30
2019-03-20T12:40:53.887Z,26.60
2019-03-20T12:43:23.718Z,26.60
2019-03-20T12:45:53.119Z,26.20
2019-03-20T12:48:22.932Z,25.70
2019-03-20T12:50:52.351Z,25.50
2019-03-20T12:53:22.448Z,25.60
2019-03-20T12:55:52.062Z,25.70
2019-03-20T12:58:21.770Z,25.40
2019-03-20T13:00:51.449Z,24.80
2019-03-20T13:03:21.191Z,24.70
2019-03-20T13:05:50.800Z,24.70
2019-03-20T13:08:20.226Z,24.30
2019-03-20T13:10:50.012Z,23.60
2019-03-20T13:13:19.479Z,22.80
2019-03-20T13:15:49.057Z,22.40
2019-03-20T13:18:18.733Z,22.40
2019-03-20T13:20:48.850Z,22.40
2019-03-20T13:23:20.801Z,22.50
2019-03-20T13:25:50.522Z,22.50
2019-03-20T13:28:20.130Z,22.40
2019-03-20T13:30:53.730Z,22.20
2019-03-20T13:33:25.922Z,21.80
2019-03-20T13:35:54.484Z,21.50
2019-03-20T13:38:23.893Z,21.20
2019-03-20T13:40:53.549Z,20.90
2019-03-20T13:43:23.201Z,20.80
2019-03-20T13:45:52.807Z,20.70
2019-03-20T13:48:22.516Z,20.50
2019-03-20T13:50:51.967Z,20.30
2019-03-20T13:53:21.433Z,20.10
2019-03-20T13:55:51.135Z,20.00
2019-03-20T13:58:20.556Z,19.90
2019-03-20T14:00:50.244Z,19.70
2019-03-20T14:03:19.708Z,19.40
2019-03-20T14:05:49.135Z,19.10
2019-03-20T14:08:18.760Z,18.90
2019-03-20T14:10:51.136Z,18.80
2019-03-20T14:13:19.513Z,18.80
2019-03-20T14:15:48.927Z,18.70
2019-03-20T14:18:18.623Z,18.80
2019-03-20T14:20:49.251Z,18.90
2019-03-20T14:23:18.859Z,18.90
2019-03-20T14:25:48.569Z,18.70
2019-03-20T14:28:18.175Z,18.30
2019-03-20T14:30:47.883Z,18.00
2019-03-20T14:33:17.492Z,17.80
2019-03-20T14:35:46.997Z,17.50
2019-03-20T14:38:16.605Z,17.30
2019-03-20T14:40:46.211Z,17.00
2019-03-20T14:43:15.665Z,16.80
2019-03-20T14:45:45.428Z,16.60
2019-03-20T14:48:16.863Z,16.50
2019-03-20T14:50:46.482Z,16.40
2019-03-20T14:53:17.420Z,16.40
2019-03-20T14:55:46.815Z,16.40
2019-03-20T14:58:16.533Z,16.40
2019-03-20T15:00:45.969Z,16.40
2019-03-20T15:03:15.748Z,16.40
2019-03-20T15:05:45.144Z,16.30
2019-03-20T15:08:14.543Z,16.20
2019-03-20T15:10:46.210Z,16.10
2019-03-20T15:13:15.164Z,16.00
2019-03-20T15:15:47.790Z,16.10
2019-03-20T15:18:17.206Z,16.20
2019-03-20T15:20:46.583Z,16.50
2019-03-20T15:23:15.964Z,16.70
2019-03-20T15:25:45.370Z,16.90
2019-03-20T15:28:14.769Z,17.00
2019-03-20T15:30:44.213Z,17.20
2019-03-20T15:33:13.706Z,17.30
2019-03-20T15:35:43.154Z,17.30
2019-03-20T15:38:12.588Z,17.20
2019-03-20T15:40:42.040Z,17.00
2019-03-20T15:43:11.433Z,16.60
2019-03-20T15:45:40.851Z,16.30
2019-03-20T15:48:11.785Z,16.10
2019-03-20T15:50:41.239Z,15.90
2019-03-20T15:53:10.756Z,15.70
2019-03-20T15:55:40.168Z,15.60
2019-03-20T15:58:09.556Z,15.50
2019-03-20T16:00:39.025Z,15.60
2019-03-20T16:03:11.992Z,15.60
2019-03-20T16:05:41.397Z,15.60
2019-03-20T16:08:10.824Z,15.60
2019-03-20T16:10:40.229Z,15.40
2019-03-20T16:13:09.731Z,15.10
2019-03-20T16:15:39.211Z,14.80
2019-03-20T16:18:08.595Z,14.60
2019-03-20T16:20:38.012Z,14.40
2019-03-20T16:23:07.488Z,14.30
2019-03-20T16:25:36.873Z,14.20
2019-03-20T16:28:06.294Z,14.00
2019-03-20T16:30:35.743Z,13.90
2019-03-20T16:33:05.155Z,13.80
2019-03-20T16:35:34.549Z,13.70
2019-03-20T16:38:04.002Z,13.60
2019-03-20T16:40:35.268Z,13.50
2019-03-20T16:43:04.783Z,13.40
2019-03-20T16:45:34.207Z,13.30
2019-03-20T16:48:03.901Z,13.20
2019-03-20T16:50:33.401Z,13.20
2019-03-20T16:53:02.789Z,13.10
2019-03-20T16:55:32.178Z,13.00
2019-03-20T16:58:01.575Z,13.00
2019-03-20T17:00:31.069Z,12.90
2019-03-20T17:03:00.559Z,12.90
2019-03-20T17:05:30.656Z,12.80
2019-03-20T17:08:00.044Z,12.70
2019-03-20T17:10:34.651Z,12.70
2019-03-20T17:13:04.443Z,12.60
2019-03-20T17:15:33.983Z,12.50
2019-03-20T17:18:03.745Z,12.50
2019-03-20T17:20:33.151Z,12.50
2019-03-20T17:23:02.541Z,12.40
2019-03-20T17:25:32.016Z,12.30
2019-03-20T17:28:01.435Z,12.30
2019-03-20T17:30:32.956Z,12.20
2019-03-20T17:33:02.569Z,12.20
2019-03-20T17:35:32.045Z,12.20
2019-03-20T17:38:01.449Z,12.10
2019-03-20T17:40:30.865Z,12.00
2019-03-20T17:43:00.713Z,12.00
2019-03-20T17:45:31.779Z,11.90
2019-03-20T17:48:01.232Z,11.90
2019-03-20T17:50:30.988Z,11.90
2019-03-20T17:53:00.496Z,11.80
2019-03-20T17:55:30.220Z,11.80
2019-03-20T17:58:01.407Z,11.70
2019-03-20T18:00:42.303Z,11.70
2019-03-20T18:03:11.740Z,11.60
2019-03-20T18:05:42.838Z,11.60
2019-03-20T18:08:12.305Z,11.50
2019-03-20T18:10:41.696Z,11.40
2019-03-20T18:13:11.076Z,11.40
2019-03-20T18:15:40.481Z,11.30
2019-03-20T18:18:09.940Z,11.30
2019-03-20T18:20:39.472Z,11.20
2019-03-20T18:23:09.172Z,11.10
2019-03-20T18:25:38.656Z,11.10
2019-03-20T18:28:08.099Z,11.00
2019-03-20T18:30:38.072Z,11.00
2019-03-20T18:33:07.482Z,10.90
2019-03-20T18:35:36.945Z,10.90
2019-03-20T18:38:07.177Z,10.80
2019-03-20T18:40:36.657Z,10.80
2019-03-20T18:43:06.376Z,10.70
2019-03-20T18:45:35.801Z,10.70
2019-03-20T18:48:05.593Z,10.70
2019-03-20T18:50:35.057Z,10.60
2019-03-20T18:53:04.472Z,10.50
2019-03-20T18:55:33.863Z,10.50
2019-03-20T18:58:03.447Z,10.40
2019-03-20T19:00:32.971Z,10.40
2019-03-20T19:03:02.626Z,10.30
2019-03-20T19:05:38.084Z,10.30
2019-03-20T19:08:07.552Z,10.20
2019-03-20T19:10:38.598Z,10.10
2019-03-20T19:13:08.097Z,10.10
2019-03-20T19:15:37.500Z,10.00
2019-03-20T19:18:06.892Z,10.00
2019-03-20T19:20:36.284Z,9.90
2019-03-20T19:23:05.677Z,9.80
2019-03-20T19:25:35.156Z,9.80
2019-03-20T19:28:04.737Z,9.70
2019-03-20T19:30:34.124Z,9.60
2019-03-20T19:33:03.853Z,9.60
2019-03-20T19:35:33.322Z,9.50
2019-03-20T19:38:03.801Z,9.50
2019-03-20T19:40:33.324Z,9.40
2019-03-20T19:43:03.821Z,9.30
2019-03-20T19:45:33.231Z,9.30
2019-03-20T19:48:02.652Z,9.20
2019-03-20T19:50:32.114Z,9.10
2019-03-20T19:53:01.721Z,9.10
2019-03-20T19:55:31.111Z,9.00
2019-03-20T19:58:00.511Z,9.00
2019-03-20T20:00:29.916Z,8.90
2019-03-20T20:02:59.388Z,8.90
2019-03-20T20:05:28.881Z,8.90
2019-03-20T20:07:58.368Z,8.80
2019-03-20T20:10:27.788Z,8.80
2019-03-20T20:12:57.379Z,8.80
2019-03-20T20:15:26.780Z,8.70
2019-03-20T20:17:56.196Z,8.70
2019-03-20T20:20:25.584Z,8.70
2019-03-20T20:22:54.975Z,8.60
2019-03-20T20:25:24.386Z,8.60
2019-03-20T20:27:53.805Z,8.50
2019-03-20T20:30:23.308Z,8.50
2019-03-20T20:32:52.800Z,8.40
2019-03-20T20:35:22.188Z,8.40
2019-03-20T20:37:51.692Z,8.30
2019-03-20T20:40:21.121Z,8.20
2019-03-20T20:42:50.600Z,8.20
2019-03-20T20:45:20.020Z,8.20
2019-03-20T20:47:49.425Z,8.10
2019-03-20T20:50:18.929Z,8.10
2019-03-20T20:52:48.358Z,8.00
2019-03-20T20:55:17.753Z,8.00
2019-03-20T20:57:47.170Z,7.90
2019-03-20T21:00:18.653Z,7.90
2019-03-20T21:02:48.043Z,7.80
2019-03-20T21:05:17.516Z,7.80
2019-03-20T21:07:46.973Z,7.80
2019-03-20T21:10:16.682Z,7.70
2019-03-20T21:12:55.598Z,7.70
2019-03-20T21:15:38.630Z,7.70
2019-03-20T21:18:46.192Z,7.60
2019-03-20T21:21:16.124Z,7.50
2019-03-20T21:24:21.044Z,7.50
2019-03-20T21:27:28.674Z,7.50
2019-03-20T21:30:51.415Z,7.40
2019-03-20T21:34:10.473Z,7.40
2019-03-20T21:37:18.043Z,7.30
2019-03-20T21:39:47.988Z,7.30
2019-03-20T21:43:06.736Z,7.20
2019-03-20T21:46:07.040Z,7.20
2019-03-20T21:48:36.956Z,7.10
2019-03-20T21:51:19.501Z,7.10
2019-03-20T21:54:39.953Z,7.10
2019-03-20T21:57:55.420Z,7.00
2019-03-20T22:01:00.461Z,6.90
2019-03-20T22:03:30.831Z,6.90
2019-03-20T22:06:37.220Z,6.90
2019-03-20T22:09:22.388Z,6.80
2019-03-20T22:12:40.984Z,6.80
2019-03-20T22:15:19.033Z,6.80
2019-03-20T22:18:24.187Z,6.80
2019-03-20T22:21:33.936Z,6.80
2019-03-20T22:24:48.459Z,6.70
2019-03-20T22:27:41.333Z,6.60
2019-03-20T22:30:11.299Z,6.60
2019-03-20T22:33:09.300Z,6.60
2019-03-20T22:36:16.860Z,6.60
2019-03-20T22:39:19.276Z,6.60
2019-03-20T22:42:13.269Z,6.50
2019-03-20T22:44:50.649Z,6.50
2019-03-20T22:47:55.396Z,6.50
2019-03-20T22:50:35.578Z,6.50
2019-03-20T22:53:42.736Z,6.40
2019-03-20T22:56:33.431Z,6.40
2019-03-20T22:59:03.449Z,6.40
2019-03-20T23:02:03.803Z,6.30
2019-03-20T23:04:40.256Z,6.30
2019-03-20T23:07:10.699Z,6.30
2019-03-20T23:09:40.864Z,6.20
2019-03-20T23:12:13.576Z,6.20
2019-03-20T23:14:44.508Z,6.20
2019-03-20T23:17:14.765Z,6.10
2019-03-20T23:19:46.855Z,6.10
2019-03-20T23:22:16.780Z,6.10
2019-03-20T23:24:47.551Z,6.10
2019-03-20T23:27:21.276Z,6.00
2019-03-20T23:29:51.255Z,6.00
2019-03-20T23:32:21.224Z,6.00
2019-03-20T23:34:51.153Z,5.90
2019-03-20T23:37:21.067Z,5.90
2019-03-20T23:39:51.004Z,5.90
2019-03-20T23:42:22.084Z,5.80
2019-03-20T23:44:52.052Z,5.80
2019-03-20T23:47:28.075Z,5.80
2019-03-20T23:49:58.014Z,5.80
2019-03-20T23:52:27.929Z,5.80
2019-03-20T23:54:58.399Z,5.70
2019-03-20T23:57:28.336Z,5.70
